Paradise, Arizona
Current Conditions -  °F | °C
As of 12:15 PM on Monday 22 Dec 2014 (Local Time) from KLSB Reporting Station
Clear Clear  
Wind Chill: 54°   Ceiling: Unl
Heat Index: 54°   Visibility: 10mi
Dew Point: 34°   Wind: 8mph
Humidity: 47%   Direction: 290°WNW
Pressure: 29.95"   Gusts: NA
Location:  32.164°N, 109.336°W
Report Text: KLSB 221915Z AUTO 29007KT 10SM CLR 12/01 A2995 RMK AO2
Loading
Personal Weather Stations






























Interactive Weather Map New forecast layout! Learn more

10-Day Weather Forecast

Advertisements
Track Severe Weather on mobile